sensor_id;sensor_type;location;lat;lon;timestamp;temperature;humidity
59999;DHT22;45859;51.378;6.736;2022-09-09T00:00:13;14.40;99.90
59999;DHT22;45859;51.378;6.736;2022-09-09T00:02:42;14.40;99.90
59999;DHT22;45859;51.378;6.736;2022-09-09T00:07:47;14.40;99.90
59999;DHT22;45859;51.378;6.736;2022-09-09T00:21:35;14.40;99.90
59999;DHT22;45859;51.378;6.736;2022-09-09T00:24:32;14.40;99.90
59999;DHT22;45859;51.378;6.736;2022-09-09T00:27:01;14.40;99.90
59999;DHT22;45859;51.378;6.736;2022-09-09T00:29:38;14.40;99.90
59999;DHT22;45859;51.378;6.736;2022-09-09T00:32:18;14.40;99.90
59999;DHT22;45859;51.378;6.736;2022-09-09T00:34:54;14.50;99.90
59999;DHT22;45859;51.378;6.736;2022-09-09T00:37:22;14.50;99.90
59999;DHT22;45859;51.378;6.736;2022-09-09T00:39:53;14.40;99.90
59999;DHT22;45859;51.378;6.736;2022-09-09T00:42:42;14.40;99.90
59999;DHT22;45859;51.378;6.736;2022-09-09T00:47:44;14.40;99.90
59999;DHT22;45859;51.378;6.736;2022-09-09T00:58:22;14.40;99.90
59999;DHT22;45859;51.378;6.736;2022-09-09T01:01:12;14.50;99.90
59999;DHT22;45859;51.378;6.736;2022-09-09T01:03:55;14.50;99.90
59999;DHT22;45859;51.378;6.736;2022-09-09T01:06:31;14.50;99.90
59999;DHT22;45859;51.378;6.736;2022-09-09T01:09:18;14.50;99.90
59999;DHT22;45859;51.378;6.736;2022-09-09T01:12:09;14.40;99.90
59999;DHT22;45859;51.378;6.736;2022-09-09T01:17:22;14.40;99.90
59999;DHT22;45859;51.378;6.736;2022-09-09T01:28:36;14.40;99.90
59999;DHT22;45859;51.378;6.736;2022-09-09T01:31:04;14.40;99.90
59999;DHT22;45859;51.378;6.736;2022-09-09T01:33:31;14.40;99.90
59999;DHT22;45859;51.378;6.736;2022-09-09T01:36:08;14.40;99.90
59999;DHT22;45859;51.378;6.736;2022-09-09T01:38:34;14.30;99.90
59999;DHT22;45859;51.378;6.736;2022-09-09T01:41:01;14.30;99.90
59999;DHT22;45859;51.378;6.736;2022-09-09T01:43:28;14.30;99.90
59999;DHT22;45859;51.378;6.736;2022-09-09T01:45:56;14.30;99.90
59999;DHT22;45859;51.378;6.736;2022-09-09T01:48:24;14.30;99.90
59999;DHT22;45859;51.378;6.736;2022-09-09T01:50:51;14.30;99.90
59999;DHT22;45859;51.378;6.736;2022-09-09T01:53:18;14.30;99.90
59999;DHT22;45859;51.378;6.736;2022-09-09T02:03:53;14.30;99.90
59999;DHT22;45859;51.378;6.736;2022-09-09T02:08:52;14.40;99.90
59999;DHT22;45859;51.378;6.736;2022-09-09T02:11:20;14.40;99.90
59999;DHT22;45859;51.378;6.736;2022-09-09T02:13:48;14.50;99.90
59999;DHT22;45859;51.378;6.736;2022-09-09T02:19:14;14.50;99.90
59999;DHT22;45859;51.378;6.736;2022-09-09T02:21:43;14.50;99.90
59999;DHT22;45859;51.378;6.736;2022-09-09T02:24:11;14.50;99.90
59999;DHT22;45859;51.378;6.736;2022-09-09T02:26:41;14.60;99.90
59999;DHT22;45859;51.378;6.736;2022-09-09T02:29:20;14.60;99.90
59999;DHT22;45859;51.378;6.736;2022-09-09T02:31:47;14.60;99.90
59999;DHT22;45859;51.378;6.736;2022-09-09T02:34:15;14.60;99.90
59999;DHT22;45859;51.378;6.736;2022-09-09T02:36:44;14.60;99.90
59999;DHT22;45859;51.378;6.736;2022-09-09T02:39:11;14.60;99.90
59999;DHT22;45859;51.378;6.736;2022-09-09T02:41:41;14.60;99.90
59999;DHT22;45859;51.378;6.736;2022-09-09T02:44:12;14.70;99.90
59999;DHT22;45859;51.378;6.736;2022-09-09T02:46:53;14.70;99.90
59999;DHT22;45859;51.378;6.736;2022-09-09T02:52:09;14.70;99.90
59999;DHT22;45859;51.378;6.736;2022-09-09T02:54:41;14.70;99.90
59999;DHT22;45859;51.378;6.736;2022-09-09T02:59:38;14.70;99.90
59999;DHT22;45859;51.378;6.736;2022-09-09T03:02:05;14.70;99.90
59999;DHT22;45859;51.378;6.736;2022-09-09T03:04:31;14.70;99.90
59999;DHT22;45859;51.378;6.736;2022-09-09T03:06:57;14.70;99.90
59999;DHT22;45859;51.378;6.736;2022-09-09T03:09:24;14.70;99.90
59999;DHT22;45859;51.378;6.736;2022-09-09T03:11:51;14.80;99.90
59999;DHT22;45859;51.378;6.736;2022-09-09T03:14:17;14.80;99.90
59999;DHT22;45859;51.378;6.736;2022-09-09T03:16:47;14.80;99.90
59999;DHT22;45859;51.378;6.736;2022-09-09T03:19:13;14.80;99.90
59999;DHT22;45859;51.378;6.736;2022-09-09T03:21:38;14.90;99.90
59999;DHT22;45859;51.378;6.736;2022-09-09T03:24:04;14.90;99.90
59999;DHT22;45859;51.378;6.736;2022-09-09T03:26:33;14.90;99.90
59999;DHT22;45859;51.378;6.736;2022-09-09T03:29:03;15.00;99.90
59999;DHT22;45859;51.378;6.736;2022-09-09T03:31:35;15.00;99.90
59999;DHT22;45859;51.378;6.736;2022-09-09T03:34:02;15.10;99.90
59999;DHT22;45859;51.378;6.736;2022-09-09T03:36:28;15.10;99.90
59999;DHT22;45859;51.378;6.736;2022-09-09T03:38:54;15.10;99.90
59999;DHT22;45859;51.378;6.736;2022-09-09T03:41:23;15.10;99.90
59999;DHT22;45859;51.378;6.736;2022-09-09T03:43:53;15.10;99.90
59999;DHT22;45859;51.378;6.736;2022-09-09T03:46:20;15.10;99.90
59999;DHT22;45859;51.378;6.736;2022-09-09T03:48:46;15.10;99.90
59999;DHT22;45859;51.378;6.736;2022-09-09T03:51:12;15.20;99.90
59999;DHT22;45859;51.378;6.736;2022-09-09T03:53:38;15.20;99.90
59999;DHT22;45859;51.378;6.736;2022-09-09T03:56:06;15.10;99.90
59999;DHT22;45859;51.378;6.736;2022-09-09T03:58:36;15.10;99.90
59999;DHT22;45859;51.378;6.736;2022-09-09T04:01:08;15.00;99.90
59999;DHT22;45859;51.378;6.736;2022-09-09T04:03:35;15.10;99.90
59999;DHT22;45859;51.378;6.736;2022-09-09T04:06:01;15.00;99.90
59999;DHT22;45859;51.378;6.736;2022-09-09T04:08:29;15.00;99.90
59999;DHT22;45859;51.378;6.736;2022-09-09T04:10:56;15.00;99.90
59999;DHT22;45859;51.378;6.736;2022-09-09T04:13:24;15.00;99.90
59999;DHT22;45859;51.378;6.736;2022-09-09T04:15:52;15.00;99.90
59999;DHT22;45859;51.378;6.736;2022-09-09T04:18:19;15.00;99.90
59999;DHT22;45859;51.378;6.736;2022-09-09T04:20:49;15.00;99.90
59999;DHT22;45859;51.378;6.736;2022-09-09T04:23:15;15.00;99.90
59999;DHT22;45859;51.378;6.736;2022-09-09T04:25:50;14.90;99.90
59999;DHT22;45859;51.378;6.736;2022-09-09T04:28:18;15.00;99.90
59999;DHT22;45859;51.378;6.736;2022-09-09T04:30:45;15.00;99.90
59999;DHT22;45859;51.378;6.736;2022-09-09T04:33:11;14.80;99.90
59999;DHT22;45859;51.378;6.736;2022-09-09T04:35:45;15.10;99.90
59999;DHT22;45859;51.378;6.736;2022-09-09T04:38:11;15.10;99.90
59999;DHT22;45859;51.378;6.736;2022-09-09T04:40:37;15.20;99.90
59999;DHT22;45859;51.378;6.736;2022-09-09T04:43:05;15.20;99.90
59999;DHT22;45859;51.378;6.736;2022-09-09T04:45:31;15.30;99.90
59999;DHT22;45859;51.378;6.736;2022-09-09T04:47:58;15.30;99.90
59999;DHT22;45859;51.378;6.736;2022-09-09T04:50:23;15.30;99.90
59999;DHT22;45859;51.378;6.736;2022-09-09T04:52:50;15.30;99.90
59999;DHT22;45859;51.378;6.736;2022-09-09T04:55:16;15.30;99.90
59999;DHT22;45859;51.378;6.736;2022-09-09T04:57:41;15.30;99.90
59999;DHT22;45859;51.378;6.736;2022-09-09T05:00:07;15.40;99.90
59999;DHT22;45859;51.378;6.736;2022-09-09T05:02:37;15.40;99.90
59999;DHT22;45859;51.378;6.736;2022-09-09T05:05:04;15.40;99.90
59999;DHT22;45859;51.378;6.736;2022-09-09T05:07:30;15.40;99.90
59999;DHT22;45859;51.378;6.736;2022-09-09T05:09:56;15.40;99.90
59999;DHT22;45859;51.378;6.736;2022-09-09T05:12:23;15.40;99.90
59999;DHT22;45859;51.378;6.736;2022-09-09T05:14:51;15.40;99.90
59999;DHT22;45859;51.378;6.736;2022-09-09T05:17:20;15.40;99.90
59999;DHT22;45859;51.378;6.736;2022-09-09T05:19:46;15.40;99.90
59999;DHT22;45859;51.378;6.736;2022-09-09T05:22:12;15.40;99.90
59999;DHT22;45859;51.378;6.736;2022-09-09T05:24:38;15.40;99.90
59999;DHT22;45859;51.378;6.736;2022-09-09T05:27:04;15.50;99.90
59999;DHT22;45859;51.378;6.736;2022-09-09T05:29:31;15.50;99.90
59999;DHT22;45859;51.378;6.736;2022-09-09T05:31:59;15.50;99.90
59999;DHT22;45859;51.378;6.736;2022-09-09T05:34:25;15.50;99.90
59999;DHT22;45859;51.378;6.736;2022-09-09T05:36:51;15.60;99.90
59999;DHT22;45859;51.378;6.736;2022-09-09T05:39:17;15.60;99.90
59999;DHT22;45859;51.378;6.736;2022-09-09T05:41:43;15.70;99.90
59999;DHT22;45859;51.378;6.736;2022-09-09T05:44:09;15.70;99.90
59999;DHT22;45859;51.378;6.736;2022-09-09T05:46:35;15.70;99.90
59999;DHT22;45859;51.378;6.736;2022-09-09T05:49:02;15.70;99.90
59999;DHT22;45859;51.378;6.736;2022-09-09T05:51:29;15.70;99.90
59999;DHT22;45859;51.378;6.736;2022-09-09T05:53:58;15.70;99.90
59999;DHT22;45859;51.378;6.736;2022-09-09T05:56:26;15.70;99.90
59999;DHT22;45859;51.378;6.736;2022-09-09T05:58:53;15.80;99.90
59999;DHT22;45859;51.378;6.736;2022-09-09T06:01:37;15.80;99.90
59999;DHT22;45859;51.378;6.736;2022-09-09T06:04:06;15.80;99.90
59999;DHT22;45859;51.378;6.736;2022-09-09T06:06:37;15.90;99.90
59999;DHT22;45859;51.378;6.736;2022-09-09T06:09:06;16.00;99.90
59999;DHT22;45859;51.378;6.736;2022-09-09T06:11:35;16.10;99.90
59999;DHT22;45859;51.378;6.736;2022-09-09T06:14:01;16.10;99.90
59999;DHT22;45859;51.378;6.736;2022-09-09T06:16:29;16.20;99.90
59999;DHT22;45859;51.378;6.736;2022-09-09T06:18:56;16.20;99.90
59999;DHT22;45859;51.378;6.736;2022-09-09T06:21:28;16.20;99.90
59999;DHT22;45859;51.378;6.736;2022-09-09T06:23:55;16.20;99.90
59999;DHT22;45859;51.378;6.736;2022-09-09T06:26:35;16.30;99.90
59999;DHT22;45859;51.378;6.736;2022-09-09T06:29:03;16.50;99.90
59999;DHT22;45859;51.378;6.736;2022-09-09T06:31:31;16.70;99.90
59999;DHT22;45859;51.378;6.736;2022-09-09T06:33:58;16.80;99.90
59999;DHT22;45859;51.378;6.736;2022-09-09T06:36:25;16.90;99.90
59999;DHT22;45859;51.378;6.736;2022-09-09T06:38:51;17.00;99.90
59999;DHT22;45859;51.378;6.736;2022-09-09T06:41:18;17.20;99.90
59999;DHT22;45859;51.378;6.736;2022-09-09T06:43:45;17.50;99.90
59999;DHT22;45859;51.378;6.736;2022-09-09T06:46:18;17.90;99.90
59999;DHT22;45859;51.378;6.736;2022-09-09T06:48:44;18.20;99.90
59999;DHT22;45859;51.378;6.736;2022-09-09T06:53:38;19.10;99.90
59999;DHT22;45859;51.378;6.736;2022-09-09T06:58:39;19.40;99.90
59999;DHT22;45859;51.378;6.736;2022-09-09T07:01:08;19.10;99.90
59999;DHT22;45859;51.378;6.736;2022-09-09T07:03:35;19.10;99.90
59999;DHT22;45859;51.378;6.736;2022-09-09T07:06:01;19.30;99.90
59999;DHT22;45859;51.378;6.736;2022-09-09T07:08:27;19.20;99.90
59999;DHT22;45859;51.378;6.736;2022-09-09T07:10:53;19.40;99.90
59999;DHT22;45859;51.378;6.736;2022-09-09T07:13:24;19.60;99.90
59999;DHT22;45859;51.378;6.736;2022-09-09T07:15:51;19.60;99.90
59999;DHT22;45859;51.378;6.736;2022-09-09T07:18:17;19.60;99.90
59999;DHT22;45859;51.378;6.736;2022-09-09T07:20:53;19.30;99.90
59999;DHT22;45859;51.378;6.736;2022-09-09T07:23:19;19.10;99.90
59999;DHT22;45859;51.378;6.736;2022-09-09T07:25:45;18.70;99.90
59999;DHT22;45859;51.378;6.736;2022-09-09T07:28:11;18.40;99.90
59999;DHT22;45859;51.378;6.736;2022-09-09T07:30:36;18.40;99.90
59999;DHT22;45859;51.378;6.736;2022-09-09T07:33:02;18.30;99.90
59999;DHT22;45859;51.378;6.736;2022-09-09T07:35:28;18.20;99.90
59999;DHT22;45859;51.378;6.736;2022-09-09T07:37:54;18.10;99.90
59999;DHT22;45859;51.378;6.736;2022-09-09T07:40:22;18.10;99.90
59999;DHT22;45859;51.378;6.736;2022-09-09T07:42:48;18.20;99.90
59999;DHT22;45859;51.378;6.736;2022-09-09T07:45:13;18.30;99.90
59999;DHT22;45859;51.378;6.736;2022-09-09T07:47:40;18.40;99.90
59999;DHT22;45859;51.378;6.736;2022-09-09T07:50:08;18.30;99.90
59999;DHT22;45859;51.378;6.736;2022-09-09T07:52:35;18.20;99.90
59999;DHT22;45859;51.378;6.736;2022-09-09T07:55:02;18.20;99.90
59999;DHT22;45859;51.378;6.736;2022-09-09T07:57:29;18.30;99.90
59999;DHT22;45859;51.378;6.736;2022-09-09T07:59:57;18.70;99.90
59999;DHT22;45859;51.378;6.736;2022-09-09T08:02:24;19.50;99.90
59999;DHT22;45859;51.378;6.736;2022-09-09T08:04:51;19.80;99.90
59999;DHT22;45859;51.378;6.736;2022-09-09T08:07:17;19.80;99.90
59999;DHT22;45859;51.378;6.736;2022-09-09T08:09:43;19.60;99.90
59999;DHT22;45859;51.378;6.736;2022-09-09T08:12:09;19.30;99.90
59999;DHT22;45859;51.378;6.736;2022-09-09T08:14:36;19.20;99.90
59999;DHT22;45859;51.378;6.736;2022-09-09T08:17:02;19.10;99.90
59999;DHT22;45859;51.378;6.736;2022-09-09T08:19:28;19.10;99.90
59999;DHT22;45859;51.378;6.736;2022-09-09T08:21:59;19.20;99.90
59999;DHT22;45859;51.378;6.736;2022-09-09T08:24:27;19.10;99.90
59999;DHT22;45859;51.378;6.736;2022-09-09T08:26:53;19.00;99.90
59999;DHT22;45859;51.378;6.736;2022-09-09T08:29:19;19.10;99.90
59999;DHT22;45859;51.378;6.736;2022-09-09T08:31:47;19.60;99.90
59999;DHT22;45859;51.378;6.736;2022-09-09T08:34:14;20.50;99.90
59999;DHT22;45859;51.378;6.736;2022-09-09T08:36:42;20.70;99.90
59999;DHT22;45859;51.378;6.736;2022-09-09T08:39:10;20.60;99.90
59999;DHT22;45859;51.378;6.736;2022-09-09T08:52:37;20.60;99.90
59999;DHT22;45859;51.378;6.736;2022-09-09T08:57:44;21.10;99.90
59999;DHT22;45859;51.378;6.736;2022-09-09T09:00:11;20.80;99.90
59999;DHT22;45859;51.378;6.736;2022-09-09T09:05:31;20.10;99.90
59999;DHT22;45859;51.378;6.736;2022-09-09T09:08:28;19.90;99.90
59999;DHT22;45859;51.378;6.736;2022-09-09T09:10:58;19.80;99.90
59999;DHT22;45859;51.378;6.736;2022-09-09T09:13:39;19.70;99.90
59999;DHT22;45859;51.378;6.736;2022-09-09T09:16:10;19.80;99.90
59999;DHT22;45859;51.378;6.736;2022-09-09T09:18:39;19.70;99.90
59999;DHT22;45859;51.378;6.736;2022-09-09T09:24:01;20.30;99.90
59999;DHT22;45859;51.378;6.736;2022-09-09T09:26:33;20.50;99.90
59999;DHT22;45859;51.378;6.736;2022-09-09T09:29:03;20.60;99.90
59999;DHT22;45859;51.378;6.736;2022-09-09T09:31:35;20.40;99.90
59999;DHT22;45859;51.378;6.736;2022-09-09T09:34:00;20.20;99.90
59999;DHT22;45859;51.378;6.736;2022-09-09T09:39:06;19.70;99.90
59999;DHT22;45859;51.378;6.736;2022-09-09T09:41:41;19.70;99.90
59999;DHT22;45859;51.378;6.736;2022-09-09T09:44:28;19.90;99.90
59999;DHT22;45859;51.378;6.736;2022-09-09T09:49:31;20.00;99.90
59999;DHT22;45859;51.378;6.736;2022-09-09T09:52:02;20.00;99.90
59999;DHT22;45859;51.378;6.736;2022-09-09T09:54:31;20.00;99.90
59999;DHT22;45859;51.378;6.736;2022-09-09T09:57:09;20.00;99.90
59999;DHT22;45859;51.378;6.736;2022-09-09T09:59:35;20.10;99.90
59999;DHT22;45859;51.378;6.736;2022-09-09T10:02:22;20.20;99.90
59999;DHT22;45859;51.378;6.736;2022-09-09T10:05:06;20.50;99.90
59999;DHT22;45859;51.378;6.736;2022-09-09T10:07:31;20.70;99.90
59999;DHT22;45859;51.378;6.736;2022-09-09T10:09:58;20.70;99.90
59999;DHT22;45859;51.378;6.736;2022-09-09T10:12:49;20.60;99.90
59999;DHT22;45859;51.378;6.736;2022-09-09T10:18:00;21.00;99.90
59999;DHT22;45859;51.378;6.736;2022-09-09T10:25:48;20.80;99.90
59999;DHT22;45859;51.378;6.736;2022-09-09T10:29:07;20.80;99.90
59999;DHT22;45859;51.378;6.736;2022-09-09T10:34:50;20.50;99.90
59999;DHT22;45859;51.378;6.736;2022-09-09T10:37:33;20.10;99.90
59999;DHT22;45859;51.378;6.736;2022-09-09T10:42:52;19.90;99.90
59999;DHT22;45859;51.378;6.736;2022-09-09T10:45:41;19.90;99.90
59999;DHT22;45859;51.378;6.736;2022-09-09T10:48:30;19.80;99.90
59999;DHT22;45859;51.378;6.736;2022-09-09T10:51:13;19.90;99.90
59999;DHT22;45859;51.378;6.736;2022-09-09T10:54:07;20.00;99.90
59999;DHT22;45859;51.378;6.736;2022-09-09T10:56:35;20.10;99.90
59999;DHT22;45859;51.378;6.736;2022-09-09T10:59:10;20.20;99.90
59999;DHT22;45859;51.378;6.736;2022-09-09T11:04:25;20.70;99.90
59999;DHT22;45859;51.378;6.736;2022-09-09T11:06:55;20.80;99.90
59999;DHT22;45859;51.378;6.736;2022-09-09T11:09:27;20.80;99.90
59999;DHT22;45859;51.378;6.736;2022-09-09T11:11:58;20.70;99.90
59999;DHT22;45859;51.378;6.736;2022-09-09T11:17:02;20.50;99.90
59999;DHT22;45859;51.378;6.736;2022-09-09T11:19:43;20.40;99.90
59999;DHT22;45859;51.378;6.736;2022-09-09T11:24:54;20.30;99.90
59999;DHT22;45859;51.378;6.736;2022-09-09T11:28:04;20.40;99.90
59999;DHT22;45859;51.378;6.736;2022-09-09T11:33:39;20.70;99.90
59999;DHT22;45859;51.378;6.736;2022-09-09T11:44:52;21.00;99.90
59999;DHT22;45859;51.378;6.736;2022-09-09T11:47:27;20.90;99.90
59999;DHT22;45859;51.378;6.736;2022-09-09T11:55:24;20.90;99.90
59999;DHT22;45859;51.378;6.736;2022-09-09T11:57:58;20.80;99.90
59999;DHT22;45859;51.378;6.736;2022-09-09T12:00:48;20.80;99.90
59999;DHT22;45859;51.378;6.736;2022-09-09T12:08:57;20.50;99.90
59999;DHT22;45859;51.378;6.736;2022-09-09T12:11:28;20.50;99.90
59999;DHT22;45859;51.378;6.736;2022-09-09T12:13:56;20.40;99.90
59999;DHT22;45859;51.378;6.736;2022-09-09T12:16:36;20.40;99.90
59999;DHT22;45859;51.378;6.736;2022-09-09T12:19:07;20.40;99.90
59999;DHT22;45859;51.378;6.736;2022-09-09T12:21:58;20.60;99.90
59999;DHT22;45859;51.378;6.736;2022-09-09T12:26:58;20.90;99.90
59999;DHT22;45859;51.378;6.736;2022-09-09T12:32:11;20.50;99.90
59999;DHT22;45859;51.378;6.736;2022-09-09T12:34:50;20.30;99.90
59999;DHT22;45859;51.378;6.736;2022-09-09T12:37:21;19.80;99.90
59999;DHT22;45859;51.378;6.736;2022-09-09T12:39:57;19.00;99.90
59999;DHT22;45859;51.378;6.736;2022-09-09T12:42:24;18.20;99.90
59999;DHT22;45859;51.378;6.736;2022-09-09T12:44:58;17.50;99.90
59999;DHT22;45859;51.378;6.736;2022-09-09T12:47:38;17.10;99.90
59999;DHT22;45859;51.378;6.736;2022-09-09T12:50:19;16.90;99.90
59999;DHT22;45859;51.378;6.736;2022-09-09T12:52:47;16.70;99.90
59999;DHT22;45859;51.378;6.736;2022-09-09T12:55:24;16.50;99.90
59999;DHT22;45859;51.378;6.736;2022-09-09T12:57:51;16.40;99.90
59999;DHT22;45859;51.378;6.736;2022-09-09T13:00:22;16.30;99.90
59999;DHT22;45859;51.378;6.736;2022-09-09T13:02:56;16.20;99.90
59999;DHT22;45859;51.378;6.736;2022-09-09T13:05:28;16.10;99.90
59999;DHT22;45859;51.378;6.736;2022-09-09T13:08:11;16.20;99.90
59999;DHT22;45859;51.378;6.736;2022-09-09T13:10:40;16.20;99.90
59999;DHT22;45859;51.378;6.736;2022-09-09T13:13:19;16.20;99.90
59999;DHT22;45859;51.378;6.736;2022-09-09T13:16:06;16.20;99.90
59999;DHT22;45859;51.378;6.736;2022-09-09T13:18:40;16.30;99.90
59999;DHT22;45859;51.378;6.736;2022-09-09T13:21:06;16.40;99.90
59999;DHT22;45859;51.378;6.736;2022-09-09T13:23:36;16.50;99.90
59999;DHT22;45859;51.378;6.736;2022-09-09T13:28:48;16.80;99.90
59999;DHT22;45859;51.378;6.736;2022-09-09T13:31:29;16.90;99.90
59999;DHT22;45859;51.378;6.736;2022-09-09T13:33:55;17.00;99.90
59999;DHT22;45859;51.378;6.736;2022-09-09T13:36:32;17.10;99.90
59999;DHT22;45859;51.378;6.736;2022-09-09T13:38:59;17.20;99.90
59999;DHT22;45859;51.378;6.736;2022-09-09T13:41:32;17.30;99.90
59999;DHT22;45859;51.378;6.736;2022-09-09T13:43:59;17.40;99.90
59999;DHT22;45859;51.378;6.736;2022-09-09T13:46:38;17.50;99.90
59999;DHT22;45859;51.378;6.736;2022-09-09T13:51:44;17.20;99.90
59999;DHT22;45859;51.378;6.736;2022-09-09T13:54:14;17.70;99.90
59999;DHT22;45859;51.378;6.736;2022-09-09T13:56:40;17.70;99.90
59999;DHT22;45859;51.378;6.736;2022-09-09T13:59:12;17.70;99.90
59999;DHT22;45859;51.378;6.736;2022-09-09T14:01:37;17.80;99.90
59999;DHT22;45859;51.378;6.736;2022-09-09T14:04:03;18.00;99.90
59999;DHT22;45859;51.378;6.736;2022-09-09T14:06:32;17.90;99.90
59999;DHT22;45859;51.378;6.736;2022-09-09T14:08:58;18.00;99.90
59999;DHT22;45859;51.378;6.736;2022-09-09T14:11:24;18.10;99.90
59999;DHT22;45859;51.378;6.736;2022-09-09T14:13:50;18.30;99.90
59999;DHT22;45859;51.378;6.736;2022-09-09T14:16:16;18.30;99.90
59999;DHT22;45859;51.378;6.736;2022-09-09T14:18:43;18.30;99.90
59999;DHT22;45859;51.378;6.736;2022-09-09T14:21:09;18.30;99.90
59999;DHT22;45859;51.378;6.736;2022-09-09T14:23:35;18.30;99.90
59999;DHT22;45859;51.378;6.736;2022-09-09T14:26:01;18.50;99.90
59999;DHT22;45859;51.378;6.736;2022-09-09T14:28:26;18.70;99.90
59999;DHT22;45859;51.378;6.736;2022-09-09T14:30:53;18.70;99.90
59999;DHT22;45859;51.378;6.736;2022-09-09T14:33:19;18.70;99.90
59999;DHT22;45859;51.378;6.736;2022-09-09T14:35:44;18.70;99.90
59999;DHT22;45859;51.378;6.736;2022-09-09T14:38:10;17.90;99.90
59999;DHT22;45859;51.378;6.736;2022-09-09T14:40:37;17.30;99.90
59999;DHT22;45859;51.378;6.736;2022-09-09T14:43:04;16.70;99.90
59999;DHT22;45859;51.378;6.736;2022-09-09T14:45:31;16.20;99.90
59999;DHT22;45859;51.378;6.736;2022-09-09T14:47:56;15.80;99.90
59999;DHT22;45859;51.378;6.736;2022-09-09T14:50:23;15.70;99.90
59999;DHT22;45859;51.378;6.736;2022-09-09T14:52:49;15.50;99.90
59999;DHT22;45859;51.378;6.736;2022-09-09T14:55:16;15.40;99.90
59999;DHT22;45859;51.378;6.736;2022-09-09T14:57:42;15.30;99.90
59999;DHT22;45859;51.378;6.736;2022-09-09T15:00:09;15.30;99.90
59999;DHT22;45859;51.378;6.736;2022-09-09T15:02:35;15.20;99.90
59999;DHT22;45859;51.378;6.736;2022-09-09T15:05:01;15.20;99.90
59999;DHT22;45859;51.378;6.736;2022-09-09T15:07:27;15.20;99.90
59999;DHT22;45859;51.378;6.736;2022-09-09T15:09:54;15.10;99.90
59999;DHT22;45859;51.378;6.736;2022-09-09T15:12:20;15.20;99.90
59999;DHT22;45859;51.378;6.736;2022-09-09T15:14:46;15.10;99.90
59999;DHT22;45859;51.378;6.736;2022-09-09T15:17:12;15.10;99.90
59999;DHT22;45859;51.378;6.736;2022-09-09T15:19:38;15.10;99.90
59999;DHT22;45859;51.378;6.736;2022-09-09T15:22:04;15.10;99.90
59999;DHT22;45859;51.378;6.736;2022-09-09T15:24:33;15.00;99.90
59999;DHT22;45859;51.378;6.736;2022-09-09T15:27:00;15.00;99.90
59999;DHT22;45859;51.378;6.736;2022-09-09T15:29:26;15.10;99.90
59999;DHT22;45859;51.378;6.736;2022-09-09T15:31:53;15.10;99.90
59999;DHT22;45859;51.378;6.736;2022-09-09T15:34:20;15.30;99.90
59999;DHT22;45859;51.378;6.736;2022-09-09T15:36:45;15.20;99.90
59999;DHT22;45859;51.378;6.736;2022-09-09T15:39:16;15.30;99.90
59999;DHT22;45859;51.378;6.736;2022-09-09T15:41:46;15.50;99.90
59999;DHT22;45859;51.378;6.736;2022-09-09T15:44:13;15.60;99.90
59999;DHT22;45859;51.378;6.736;2022-09-09T15:46:44;15.70;99.90
59999;DHT22;45859;51.378;6.736;2022-09-09T15:51:40;15.90;99.90
59999;DHT22;45859;51.378;6.736;2022-09-09T15:54:06;16.00;99.90
59999;DHT22;45859;51.378;6.736;2022-09-09T15:56:32;15.60;99.90
59999;DHT22;45859;51.378;6.736;2022-09-09T15:58:59;15.90;99.90
59999;DHT22;45859;51.378;6.736;2022-09-09T16:01:26;15.90;99.90
59999;DHT22;45859;51.378;6.736;2022-09-09T16:03:52;15.90;99.90
59999;DHT22;45859;51.378;6.736;2022-09-09T16:06:20;16.00;99.90
59999;DHT22;45859;51.378;6.736;2022-09-09T16:08:49;16.00;99.90
59999;DHT22;45859;51.378;6.736;2022-09-09T16:11:28;16.00;99.90
59999;DHT22;45859;51.378;6.736;2022-09-09T16:13:56;16.00;99.90
59999;DHT22;45859;51.378;6.736;2022-09-09T16:16:25;16.00;99.90
59999;DHT22;45859;51.378;6.736;2022-09-09T16:18:53;16.00;99.90
59999;DHT22;45859;51.378;6.736;2022-09-09T16:21:31;16.10;99.90
59999;DHT22;45859;51.378;6.736;2022-09-09T16:23:59;16.10;99.90
59999;DHT22;45859;51.378;6.736;2022-09-09T16:26:26;16.20;99.90
59999;DHT22;45859;51.378;6.736;2022-09-09T16:28:52;16.30;99.90
59999;DHT22;45859;51.378;6.736;2022-09-09T16:31:22;16.30;99.90
59999;DHT22;45859;51.378;6.736;2022-09-09T16:33:48;16.50;99.90
59999;DHT22;45859;51.378;6.736;2022-09-09T16:36:18;16.50;99.90
59999;DHT22;45859;51.378;6.736;2022-09-09T16:38:44;16.50;99.90
59999;DHT22;45859;51.378;6.736;2022-09-09T16:41:12;16.50;99.90
59999;DHT22;45859;51.378;6.736;2022-09-09T16:43:41;16.50;99.90
59999;DHT22;45859;51.378;6.736;2022-09-09T16:46:17;16.50;99.90
59999;DHT22;45859;51.378;6.736;2022-09-09T16:48:44;16.50;99.90
59999;DHT22;45859;51.378;6.736;2022-09-09T16:51:18;16.50;99.90
59999;DHT22;45859;51.378;6.736;2022-09-09T16:53:45;16.50;99.90
59999;DHT22;45859;51.378;6.736;2022-09-09T16:56:16;16.60;99.90
59999;DHT22;45859;51.378;6.736;2022-09-09T16:58:42;16.60;99.90
59999;DHT22;45859;51.378;6.736;2022-09-09T17:01:11;16.70;99.90
59999;DHT22;45859;51.378;6.736;2022-09-09T17:03:40;16.70;99.90
59999;DHT22;45859;51.378;6.736;2022-09-09T17:06:13;16.70;99.90
59999;DHT22;45859;51.378;6.736;2022-09-09T17:08:40;16.70;99.90
59999;DHT22;45859;51.378;6.736;2022-09-09T17:13:41;16.60;99.90
59999;DHT22;45859;51.378;6.736;2022-09-09T17:16:07;16.70;99.90
59999;DHT22;45859;51.378;6.736;2022-09-09T17:18:34;16.70;99.90
59999;DHT22;45859;51.378;6.736;2022-09-09T17:21:08;16.70;99.90
59999;DHT22;45859;51.378;6.736;2022-09-09T17:23:35;16.70;99.90
59999;DHT22;45859;51.378;6.736;2022-09-09T17:26:08;16.60;99.90
59999;DHT22;45859;51.378;6.736;2022-09-09T17:28:36;16.60;99.90
59999;DHT22;45859;51.378;6.736;2022-09-09T17:31:02;16.60;99.90
59999;DHT22;45859;51.378;6.736;2022-09-09T17:33:34;16.60;99.90
59999;DHT22;45859;51.378;6.736;2022-09-09T17:36:01;16.50;99.90
59999;DHT22;45859;51.378;6.736;2022-09-09T17:38:30;16.50;99.90
59999;DHT22;45859;51.378;6.736;2022-09-09T17:41:29;16.50;99.90
59999;DHT22;45859;51.378;6.736;2022-09-09T17:43:56;16.50;99.90
59999;DHT22;45859;51.378;6.736;2022-09-09T17:46:27;16.50;99.90
59999;DHT22;45859;51.378;6.736;2022-09-09T17:48:59;16.40;99.90
59999;DHT22;45859;51.378;6.736;2022-09-09T17:51:27;16.40;99.90
59999;DHT22;45859;51.378;6.736;2022-09-09T17:53:57;16.40;99.90
59999;DHT22;45859;51.378;6.736;2022-09-09T17:56:24;16.40;99.90
59999;DHT22;45859;51.378;6.736;2022-09-09T17:58:51;16.40;99.90
59999;DHT22;45859;51.378;6.736;2022-09-09T18:01:27;16.40;99.90
59999;DHT22;45859;51.378;6.736;2022-09-09T18:03:54;16.40;99.90
59999;DHT22;45859;51.378;6.736;2022-09-09T18:06:24;16.40;99.90
59999;DHT22;45859;51.378;6.736;2022-09-09T18:08:53;16.30;99.90
59999;DHT22;45859;51.378;6.736;2022-09-09T18:11:21;16.40;99.90